Time;durP1;ratioP1;P1;durP2;ratioP2;P2;SDS_P1;SDS_P2;PMS_P1;PMS_P2;Temp;Humidity;BMP_temperature;BMP_pressure;BME280_temperature;BME280_humidity;BME280_pressure;Samples;Min_cycle;Max_cycle;Signal;HPM_P1;HPM_P2
2023/07/25 00:02:08;;;;;;;4.13;1.57;;;18.50;99.80;;;19.43;100.00;97076.97;5062338;28;20443;-82
2023/07/25 00:04:39;;;;;;;4.80;2.13;;;18.50;99.60;;;19.43;100.00;97071.69;5063492;28;20468;-82
2023/07/25 00:07:09;;;;;;;2.67;1.60;;;18.50;99.80;;;19.40;100.00;97069.50;5066968;28;20556;-83
2023/07/25 00:09:39;;;;;;;2.97;1.80;;;18.50;99.70;;;19.41;100.00;97065.81;5066877;28;21237;-82
2023/07/25 00:12:09;;;;;;;3.90;1.97;;;18.60;99.80;;;19.45;100.00;97066.09;5060851;28;20463;-82
2023/07/25 00:14:39;;;;;;;3.20;1.80;;;18.50;99.60;;;19.46;100.00;97062.38;5065731;28;20464;-83
2023/07/25 00:17:09;;;;;;;3.93;2.33;;;18.60;99.80;;;19.48;100.00;97061.03;5067683;28;20550;-83
2023/07/25 00:19:38;;;;;;;2.27;1.50;;;18.50;99.70;;;19.43;100.00;97058.41;5069345;28;20465;-83
2023/07/25 00:22:09;;;;;;;4.03;2.30;;;18.60;99.70;;;19.42;100.00;97056.81;5063830;28;20468;-82
2023/07/25 00:24:40;;;;;;;2.10;1.63;;;18.60;99.60;;;19.33;100.00;97052.31;5063458;28;20457;-82
2023/07/25 00:27:09;;;;;;;2.80;1.60;;;18.60;99.50;;;19.31;100.00;97049.09;5065772;28;21015;-82
2023/07/25 00:29:40;;;;;;;3.70;1.80;;;18.50;99.60;;;19.24;100.00;97048.56;5067055;28;20960;-82
2023/07/25 00:32:10;;;;;;;2.97;1.83;;;18.50;99.60;;;19.19;100.00;97052.03;5064031;28;20475;-83
2023/07/25 00:34:41;;;;;;;3.10;1.90;;;18.50;99.80;;;19.17;100.00;97048.06;5061441;28;20988;-83
2023/07/25 00:37:09;;;;;;;4.43;2.00;;;18.40;99.80;;;19.23;100.00;97045.13;5066733;28;20467;-82
2023/07/25 00:39:40;;;;;;;2.27;1.60;;;18.30;99.90;;;19.22;100.00;97048.06;5067411;28;21028;-83
2023/07/25 00:42:09;;;;;;;3.83;1.80;;;18.40;99.90;;;19.18;100.00;97039.84;5061026;28;20457;-82
2023/07/25 00:44:40;;;;;;;5.13;2.23;;;18.30;99.90;;;19.20;100.00;97040.38;5066859;28;21018;-82
2023/07/25 00:47:10;;;;;;;2.37;1.90;;;18.30;99.90;;;19.18;100.00;97045.16;5065696;28;20480;-82
2023/07/25 00:49:42;;;;;;;2.73;1.80;;;18.40;99.90;;;19.14;100.00;97044.09;5068190;28;20480;-83
2023/07/25 00:52:12;;;;;;;1.77;1.50;;;18.30;99.90;;;19.13;100.00;97037.19;5068146;28;20553;-83
2023/07/25 00:54:48;;;;;;;5.83;2.30;;;18.30;99.90;;;19.13;100.00;97047.78;5063241;28;20475;-82
2023/07/25 00:57:19;;;;;;;4.73;2.00;;;18.30;99.90;;;19.03;100.00;97055.75;5064333;28;20487;-82
2023/07/25 00:59:51;;;;;;;3.33;2.00;;;18.30;99.90;;;19.04;100.00;97054.69;5066687;28;20476;-82
2023/07/25 01:02:21;;;;;;;5.27;2.10;;;18.30;99.90;;;19.06;100.00;97055.22;5066714;28;20448;-83
2023/07/25 01:04:51;;;;;;;2.50;1.80;;;18.20;99.90;;;19.04;100.00;97050.19;5063556;28;20456;-83
2023/07/25 01:07:22;;;;;;;3.00;1.87;;;18.20;99.90;;;19.02;100.00;97041.69;5059222;28;20502;-83
2023/07/25 01:09:52;;;;;;;1.87;1.60;;;18.10;99.90;;;19.03;100.00;97045.94;5063734;28;20484;-83
2023/07/25 01:12:24;;;;;;;2.60;1.60;;;18.10;99.90;;;19.04;100.00;97044.09;5066923;28;20465;-83
2023/07/25 01:14:56;;;;;;;2.73;1.70;;;18.20;99.90;;;19.06;100.00;97037.44;5067689;28;20503;-82
2023/07/25 01:17:27;;;;;;;3.83;2.40;;;18.20;99.90;;;19.03;100.00;97043.28;5069773;28;20452;-82
2023/07/25 01:19:58;;;;;;;2.37;1.63;;;18.20;99.90;;;18.98;100.00;97039.84;5065599;28;20455;-83
2023/07/25 01:22:29;;;;;;;5.57;2.20;;;18.10;99.90;;;18.93;100.00;97039.84;5070180;28;20457;-83
2023/07/25 01:25:02;;;;;;;3.67;1.70;;;18.10;99.90;;;18.91;100.00;97037.47;5067567;28;20452;-82
2023/07/25 01:27:32;;;;;;;1.97;1.67;;;18.10;99.90;;;18.83;100.00;97042.50;5067094;28;20487;-83
2023/07/25 01:30:02;;;;;;;8.17;1.97;;;18.10;99.90;;;18.82;100.00;97038.25;5070343;28;20484;-83
2023/07/25 01:32:33;;;;;;;3.43;1.70;;;18.00;99.90;;;18.78;100.00;97043.28;5069082;28;20463;-83
2023/07/25 01:35:03;;;;;;;3.13;1.90;;;18.00;99.90;;;18.74;100.00;97030.84;5070162;28;20469;-83
2023/07/25 01:37:33;;;;;;;2.30;1.63;;;18.00;99.90;;;18.78;100.00;97031.91;5070134;28;20473;-83
2023/07/25 01:40:04;;;;;;;2.93;2.00;;;17.90;99.90;;;18.65;100.00;97032.41;5068394;28;20553;-83
2023/07/25 01:42:34;;;;;;;2.93;2.10;;;17.90;99.90;;;18.64;100.00;97028.94;5070561;28;20871;-83
2023/07/25 01:45:04;;;;;;;4.30;2.13;;;17.80;99.90;;;18.65;100.00;97035.03;5069907;28;20495;-83
2023/07/25 01:47:34;;;;;;;2.40;1.97;;;17.80;99.90;;;18.62;100.00;97039.03;5070981;28;20500;-82
2023/07/25 01:50:05;;;;;;;3.33;2.47;;;17.80;99.90;;;18.69;100.00;97044.06;5066073;28;20460;-83
2023/07/25 01:52:34;;;;;;;5.83;1.97;;;17.80;99.90;;;18.66;100.00;97045.41;5068691;28;20551;-83
2023/07/25 01:55:07;;;;;;;3.43;2.47;;;17.80;99.90;;;18.70;100.00;97043.00;5065796;28;20468;-83
2023/07/25 01:57:37;;;;;;;4.20;2.20;;;17.80;99.90;;;18.63;100.00;97042.47;5066272;28;20522;-83
2023/07/25 02:00:08;;;;;;;4.50;2.33;;;17.90;99.90;;;18.50;100.00;97031.31;5066904;28;20468;-83
2023/07/25 02:02:38;;;;;;;3.10;2.03;;;17.80;99.90;;;18.56;100.00;97027.63;5067501;28;20534;-83
2023/07/25 02:05:08;;;;;;;4.53;2.10;;;17.80;99.90;;;18.52;100.00;97021.28;5069151;28;20463;-82
2023/07/25 02:07:38;;;;;;;3.80;2.37;;;17.60;99.90;;;18.50;100.00;97020.72;5069726;28;21165;-84
2023/07/25 02:10:10;;;;;;;4.60;2.33;;;17.60;99.90;;;18.45;100.00;97020.69;5073811;28;20753;-82
2023/07/25 02:12:42;;;;;;;6.33;2.10;;;17.60;99.90;;;18.39;100.00;97005.06;5067997;28;20456;-82
2023/07/25 02:15:13;;;;;;;2.90;1.93;;;17.60;99.90;;;18.38;100.00;97008.75;5062290;28;20510;-83
2023/07/25 02:17:44;;;;;;;3.67;2.50;;;17.60;99.90;;;18.30;100.00;97007.41;5064694;28;20464;-83
2023/07/25 02:20:15;;;;;;;2.20;1.97;;;17.60;99.90;;;18.26;100.00;97006.34;5068106;28;20459;-82
2023/07/25 02:22:44;;;;;;;4.23;2.30;;;17.60;99.90;;;18.21;100.00;96998.41;5067699;28;20472;-82
2023/07/25 02:25:16;;;;;;;4.17;3.40;;;17.60;99.90;;;18.22;100.00;97004.50;5064979;28;20462;-82
2023/07/25 02:27:45;;;;;;;2.50;2.20;;;17.50;99.90;;;18.14;100.00;96997.88;5068256;28;21075;-82
2023/07/25 02:30:15;;;;;;;8.93;2.20;;;17.50;99.90;;;18.12;100.00;96999.97;5062568;28;20468;-83
2023/07/25 02:32:44;;;;;;;3.27;2.43;;;17.50;99.90;;;18.07;100.00;96997.31;5065935;28;20467;-82
2023/07/25 02:35:15;;;;;;;12.87;2.23;;;17.40;99.90;;;18.00;100.00;96996.75;5066546;28;20560;-83
2023/07/25 02:37:45;;;;;;;2.30;1.80;;;17.40;99.90;;;18.03;100.00;96996.25;5062161;28;20479;-82
2023/07/25 02:40:17;;;;;;;3.60;2.10;;;17.30;99.90;;;18.08;100.00;96990.97;5065320;28;20792;-82
2023/07/25 02:42:47;;;;;;;2.30;1.93;;;17.30;99.90;;;18.16;100.00;96994.94;5065858;28;20543;-82
2023/07/25 02:45:17;;;;;;;4.10;2.13;;;17.40;99.90;;;18.18;100.00;96988.34;5064533;28;20814;-82
2023/07/25 02:47:47;;;;;;;2.60;2.40;;;17.40;99.90;;;18.13;100.00;96984.88;5062669;28;20501;-82
2023/07/25 02:50:17;;;;;;;3.80;2.50;;;17.40;99.90;;;18.16;100.00;96985.16;5065507;28;20459;-82
2023/07/25 02:52:48;;;;;;;3.90;2.70;;;17.40;99.90;;;18.22;100.00;96988.63;5066971;28;20547;-91
2023/07/25 02:55:20;;;;;;;3.10;2.57;;;17.40;99.90;;;18.24;100.00;96979.34;5065333;28;20513;-83
2023/07/25 02:57:50;;;;;;;3.67;2.73;;;17.40;99.90;;;18.27;100.00;96976.19;5061849;28;20577;-82
2023/07/25 03:00:20;;;;;;;5.17;2.67;;;17.40;99.90;;;18.27;100.00;96964.81;5059937;28;20981;-82
2023/07/25 03:02:50;;;;;;;5.50;2.37;;;17.40;99.90;;;18.26;100.00;96963.19;5064925;28;20464;-82
2023/07/25 03:05:21;;;;;;;4.23;2.47;;;17.40;99.90;;;18.30;100.00;96957.13;5064116;28;20525;-85
2023/07/25 03:07:52;;;;;;;13.60;2.30;;;17.30;99.90;;;18.26;100.00;96953.41;5060699;28;20484;-82
2023/07/25 03:10:24;;;;;;;5.67;2.33;;;17.30;99.90;;;18.29;100.00;96952.88;5062671;28;21015;-82
2023/07/25 03:12:55;;;;;;;3.20;2.90;;;17.40;99.90;;;18.27;100.00;96949.72;5063728;28;20472;-82
2023/07/25 03:15:25;;;;;;;4.60;2.40;;;17.40;99.90;;;18.27;100.00;96941.78;5065869;28;20491;-83
2023/07/25 03:17:55;;;;;;;9.20;2.33;;;17.40;99.90;;;18.26;100.00;96945.47;5059989;28;20547;-82
2023/07/25 03:20:25;;;;;;;2.70;2.50;;;17.40;99.90;;;18.27;100.00;96939.13;5063434;28;20456;-82
2023/07/25 03:22:56;;;;;;;2.67;2.03;;;17.40;99.90;;;18.24;100.00;96949.44;5062187;28;20919;-89
2023/07/25 03:25:26;;;;;;;4.27;2.40;;;17.40;99.90;;;18.23;100.00;96939.91;5064795;28;20548;-83
2023/07/25 03:27:57;;;;;;;5.20;2.87;;;17.40;99.90;;;18.22;100.00;96947.09;5063605;28;20487;-84
2023/07/25 03:30:27;;;;;;;4.03;2.57;;;17.40;99.90;;;18.26;100.00;96940.19;5059922;28;20467;-82
2023/07/25 03:32:57;;;;;;;4.10;1.80;;;17.40;99.90;;;18.23;100.00;96934.63;5067480;28;20468;-83
2023/07/25 03:35:27;;;;;;;3.30;2.23;;;17.40;99.90;;;18.24;100.00;96934.38;5064615;28;20482;-83
2023/07/25 03:37:58;;;;;;;4.50;2.40;;;17.40;99.90;;;18.25;100.00;96928.03;5064725;28;20475;-83
2023/07/25 03:40:30;;;;;;;8.57;2.37;;;17.40;99.90;;;18.21;100.00;96921.66;5064429;28;21173;-83
2023/07/25 03:43:01;;;;;;;10.20;2.33;;;17.40;99.90;;;18.24;100.00;96928.28;5067076;28;20456;-83
2023/07/25 03:45:30;;;;;;;7.23;2.60;;;17.40;99.90;;;18.05;100.00;96927.97;5067859;28;20468;-83
2023/07/25 03:48:01;;;;;;;2.80;2.23;;;17.40;99.90;;;18.02;100.00;96939.06;5064201;28;20557;-83
2023/07/25 03:50:31;;;;;;;6.10;2.53;;;17.30;99.90;;;17.96;100.00;96932.19;5061046;28;20475;-83
2023/07/25 03:53:01;;;;;;;3.00;2.50;;;17.30;99.90;;;17.94;100.00;96929.81;5066364;28;20554;-83
2023/07/25 03:55:31;;;;;;;5.90;2.63;;;17.30;99.90;;;17.95;100.00;96925.31;5064598;28;20492;-88
2023/07/25 03:58:01;;;;;;;6.30;2.83;;;17.20;99.90;;;18.00;100.00;96922.69;5065771;28;20464;-83
2023/07/25 04:00:32;;;;;;;3.60;2.30;;;17.20;99.90;;;18.06;100.00;96924.28;5062312;28;20468;-82
2023/07/25 04:03:02;;;;;;;3.70;2.47;;;17.20;99.90;;;18.06;100.00;96921.63;5067022;28;21193;-83
2023/07/25 04:05:42;;;;;;;5.77;3.17;;;17.20;99.90;;;18.10;100.00;96917.41;5066593;28;20533;-82
2023/07/25 04:08:11;;;;;;;4.93;2.50;;;17.20;99.90;;;18.07;100.00;96912.66;5066427;28;20571;-83
2023/07/25 04:10:42;;;;;;;8.43;2.80;;;17.30;99.90;;;18.03;100.00;96907.06;5064160;28;20461;-82
2023/07/25 04:13:13;;;;;;;8.50;2.77;;;17.30;99.90;;;18.07;100.00;96913.44;5064308;28;21037;-83
2023/07/25 04:15:43;;;;;;;3.10;2.00;;;17.30;99.90;;;18.05;100.00;96910.25;5058897;28;20453;-88
2023/07/25 04:18:14;;;;;;;6.20;2.90;;;17.20;99.90;;;18.06;100.00;96900.47;5062892;28;20460;-83
2023/07/25 04:20:44;;;;;;;3.87;2.90;;;17.20;99.90;;;18.06;100.00;96900.47;5073417;28;20455;-81
2023/07/25 04:23:15;;;;;;;5.00;2.93;;;17.20;99.90;;;18.00;100.00;96883.00;5065205;28;21614;-83
2023/07/25 04:25:47;;;;;;;2.80;2.47;;;17.30;99.90;;;17.96;100.00;96880.09;5060335;28;20470;-82
2023/07/25 04:28:18;;;;;;;4.83;2.83;;;17.30;99.90;;;18.04;100.00;96884.06;5064487;28;21001;-83
2023/07/25 04:30:48;;;;;;;4.47;2.83;;;17.30;99.90;;;18.02;100.00;96884.31;5066770;28;20947;-82
2023/07/25 04:33:18;;;;;;;23.00;13.53;;;17.30;99.90;;;17.97;100.00;96891.47;5063137;28;20471;-82
2023/07/25 04:35:47;;;;;;;6.50;3.30;;;17.30;99.90;;;17.97;100.00;96881.69;5061357;28;20471;-82
2023/07/25 04:38:18;;;;;;;4.87;2.70;;;17.30;99.90;;;18.03;100.00;96877.19;5062028;28;20551;-84
2023/07/25 04:40:50;;;;;;;4.90;2.33;;;17.30;99.90;;;18.06;100.00;96868.72;5063960;28;20467;-83
2023/07/25 04:43:21;;;;;;;3.73;2.67;;;17.20;99.90;;;18.08;100.00;96869.25;5067748;28;20989;-83
2023/07/25 04:45:51;;;;;;;10.70;2.23;;;17.30;99.90;;;18.09;100.00;96871.63;5067497;28;20469;-83
2023/07/25 04:48:23;;;;;;;3.10;2.37;;;17.30;99.90;;;18.11;100.00;96871.38;5069846;28;20496;-83
2023/07/25 04:50:54;;;;;;;2.90;2.30;;;17.30;99.90;;;18.00;100.00;96875.84;5068594;28;20977;-83
2023/07/25 04:53:25;;;;;;;2.60;2.37;;;17.30;99.90;;;18.01;100.00;96872.13;5069867;28;20464;-83
2023/07/25 04:55:56;;;;;;;5.27;2.57;;;17.30;99.90;;;18.02;100.00;96868.44;5070322;28;20461;-82
2023/07/25 04:58:26;;;;;;;4.03;2.37;;;17.30;99.90;;;18.09;100.00;96874.28;5069768;28;20858;-83
2023/07/25 05:00:57;;;;;;;3.70;2.70;;;17.30;99.90;;;18.14;100.00;96881.44;5071290;28;20471;-83
2023/07/25 05:03:27;;;;;;;8.77;3.00;;;17.30;99.90;;;18.12;100.00;96877.47;5069007;28;20460;-82
2023/07/25 05:05:57;;;;;;;7.03;2.60;;;17.30;99.90;;;18.00;100.00;96888.28;5070146;28;20547;-83
2023/07/25 05:08:27;;;;;;;4.53;2.50;;;17.30;99.90;;;18.00;100.00;96893.59;5071966;28;20498;-82
2023/07/25 05:11:00;;;;;;;5.03;2.63;;;17.20;99.90;;;17.97;100.00;96888.81;5066376;28;20460;-82
2023/07/25 05:13:36;;;;;;;5.03;3.30;;;17.20;99.90;;;17.99;100.00;96892.78;5069081;28;20525;-82
2023/07/25 05:16:07;;;;;;;2.43;2.23;;;17.20;99.90;;;17.97;100.00;96902.84;5070081;28;20472;-82
2023/07/25 05:18:38;;;;;;;3.40;2.30;;;17.00;99.90;;;17.93;100.00;96895.69;5070559;28;20470;-84
2023/07/25 05:21:07;;;;;;;6.73;2.23;;;17.00;99.90;;;17.94;100.00;96892.00;5070935;28;20515;-82
2023/07/25 05:23:37;;;;;;;5.23;2.87;;;17.10;99.90;;;17.91;100.00;96884.59;5065315;28;20471;-82
2023/07/25 05:26:08;;;;;;;4.77;2.67;;;17.20;99.90;;;17.98;100.00;96885.91;5068470;28;20460;-83
2023/07/25 05:28:37;;;;;;;4.43;2.77;;;17.20;99.90;;;18.01;100.00;96879.31;5068923;28;20487;-82
2023/07/25 05:31:07;;;;;;;4.33;2.30;;;17.20;99.90;;;18.02;100.00;96880.88;5067885;28;20460;-82
2023/07/25 05:33:37;;;;;;;4.47;2.70;;;17.20;99.90;;;18.03;100.00;96879.81;5068380;28;20472;-82
2023/07/25 05:36:08;;;;;;;11.57;2.57;;;17.20;99.90;;;18.07;100.00;96880.88;5069927;28;20530;-82
2023/07/25 05:38:39;;;;;;;5.03;2.40;;;17.20;99.90;;;18.00;100.00;96881.16;5068373;28;20476;-83
2023/07/25 05:41:11;;;;;;;7.13;2.20;;;17.30;99.90;;;18.03;100.00;96877.19;5068390;28;20452;-82
2023/07/25 05:43:41;;;;;;;4.43;2.30;;;17.30;99.90;;;18.03;100.00;96880.63;5068016;28;20467;-82
2023/07/25 05:46:12;;;;;;;6.90;2.10;;;17.20;99.90;;;18.04;100.00;96882.22;5070340;28;20467;-82
2023/07/25 05:48:43;;;;;;;4.80;2.33;;;17.10;99.90;;;18.01;100.00;96881.94;5070710;28;20485;-82
2023/07/25 05:51:12;;;;;;;7.30;1.87;;;17.00;99.90;;;17.97;100.00;96868.44;5070004;28;20463;-82
2023/07/25 05:53:43;;;;;;;6.17;2.80;;;17.10;99.90;;;17.92;100.00;96859.69;5071203;28;20471;-82
2023/07/25 05:56:14;;;;;;;7.30;2.30;;;17.10;99.90;;;17.96;100.00;96860.75;5067540;28;20797;-82
2023/07/25 05:58:44;;;;;;;5.20;3.17;;;17.10;99.90;;;17.97;100.00;96868.44;5068816;28;20463;-82
2023/07/25 06:01:14;;;;;;;5.13;2.50;;;17.10;99.90;;;17.82;100.00;96865.78;5070221;28;20467;-83
2023/07/25 06:03:45;;;;;;;7.63;2.00;;;17.10;99.90;;;17.77;100.00;96860.47;5069273;28;20500;-82
2023/07/25 06:06:14;;;;;;;2.83;1.60;;;17.10;99.90;;;17.73;100.00;96864.72;5069587;28;20834;-82
2023/07/25 06:08:45;;;;;;;2.90;1.70;;;17.00;99.90;;;17.66;100.00;96877.38;5072487;28;21070;-82
2023/07/25 06:11:21;;;;;;;2.00;1.53;;;16.90;99.90;;;17.59;100.00;96885.56;5071880;28;20510;-82
2023/07/25 06:13:52;;;;;;;2.53;1.80;;;16.80;99.90;;;17.63;100.00;96874.47;5071569;28;21758;-82
2023/07/25 06:16:22;;;;;;;3.67;2.07;;;16.90;99.90;;;17.54;100.00;96904.00;5068978;28;20859;-82
2023/07/25 06:18:52;;;;;;;3.87;1.60;;;16.80;99.90;;;17.29;100.00;96892.53;5067565;28;20549;-82
2023/07/25 06:21:23;;;;;;;3.60;1.67;;;16.90;99.90;;;17.18;100.00;96857.34;5068175;28;20555;-82
2023/07/25 06:23:54;;;;;;;1.30;1.10;;;16.70;99.90;;;17.18;100.00;96838.84;5067587;28;20514;-82
2023/07/25 06:26:25;;;;;;;9.83;2.27;;;16.70;99.90;;;17.26;100.00;96838.34;5070236;28;20939;-82
2023/07/25 06:28:55;;;;;;;4.37;1.10;;;16.60;99.90;;;17.35;100.00;96865.09;5069276;28;20480;-82
2023/07/25 06:31:36;;;;;;;1.97;1.10;;;16.60;99.90;;;17.25;100.00;96878.25;5068458;28;20961;-82
2023/07/25 06:34:10;;;;;;;2.70;0.90;;;16.60;99.90;;;17.07;100.00;96904.06;5067687;28;20535;-82
2023/07/25 06:36:41;;;;;;;2.30;1.20;;;16.70;99.90;;;16.93;100.00;96896.84;5070689;28;20463;-82
2023/07/25 06:39:11;;;;;;;1.40;1.10;;;16.60;99.90;;;16.94;100.00;96896.59;5067828;28;20471;-82
2023/07/25 06:41:44;;;;;;;1.83;1.30;;;16.50;99.90;;;16.84;100.00;96903.66;5068048;28;20471;-82
2023/07/25 06:44:15;;;;;;;2.27;1.73;;;16.40;99.90;;;16.83;100.00;96912.63;5067700;28;20467;-82
2023/07/25 06:46:46;;;;;;;2.70;1.83;;;16.40;99.90;;;16.84;100.00;96922.13;5068971;28;20456;-82
2023/07/25 06:49:16;;;;;;;2.33;1.80;;;16.30;99.90;;;16.73;100.00;96925.78;5067262;28;20485;-82
2023/07/25 06:51:45;;;;;;;7.00;1.90;;;16.30;99.90;;;16.58;100.00;96945.72;5070198;28;20826;-82
2023/07/25 06:54:16;;;;;;;2.33;1.50;;;16.30;99.90;;;16.50;100.00;96951.44;5069188;28;20448;-82
2023/07/25 06:56:49;;;;;;;4.47;1.67;;;16.10;99.90;;;16.50;100.00;96956.72;5067272;28;21070;-82
2023/07/25 06:59:19;;;;;;;3.80;1.73;;;16.00;99.90;;;16.62;100.00;96945.22;5072413;28;20459;-82
2023/07/25 07:01:50;;;;;;;2.90;1.47;;;16.10;99.90;;;16.54;100.00;96931.41;5067698;28;20973;-82
2023/07/25 07:04:21;;;;;;;1.97;1.40;;;16.10;99.90;;;16.47;100.00;96922.91;5069453;28;20575;-82
2023/07/25 07:06:50;;;;;;;4.70;1.47;;;16.10;99.90;;;16.45;100.00;96911.78;5067154;28;20461;-82
2023/07/25 07:09:20;;;;;;;6.03;1.50;;;16.00;99.90;;;16.46;100.00;96912.59;5069352;28;20487;-82
2023/07/25 07:11:51;;;;;;;1.53;1.30;;;16.00;99.90;;;16.48;100.00;96916.59;5069489;28;20463;-82
2023/07/25 07:14:22;;;;;;;1.73;1.50;;;16.00;99.90;;;16.55;100.00;96919.84;5071283;28;20551;-82
2023/07/25 07:16:53;;;;;;;2.53;1.40;;;16.00;99.90;;;16.62;100.00;96918.81;5065509;28;20470;-82
2023/07/25 07:19:23;;;;;;;1.50;1.37;;;16.00;99.90;;;16.69;100.00;96919.41;5070209;28;21234;-82
2023/07/25 07:21:54;;;;;;;6.17;1.93;;;16.10;99.90;;;16.83;100.00;96912.63;5067243;28;20461;-82
2023/07/25 07:24:25;;;;;;;1.77;1.60;;;16.10;99.90;;;16.91;100.00;96904.22;5067950;28;20517;-82
2023/07/25 07:26:57;;;;;;;2.23;1.80;;;16.20;99.90;;;17.06;100.00;96901.69;5064541;28;20464;-82
2023/07/25 07:29:27;;;;;;;2.30;2.10;;;16.30;99.90;;;17.14;100.00;96889.84;5067374;28;20505;-82
2023/07/25 07:32:02;;;;;;;3.30;1.90;;;16.40;99.90;;;17.23;100.00;96881.16;5069278;28;20457;-82
2023/07/25 07:34:33;;;;;;;2.80;2.07;;;16.50;99.90;;;17.25;100.00;96875.63;5066711;28;20462;-82
2023/07/25 07:37:03;;;;;;;7.77;2.70;;;16.60;99.90;;;17.29;100.00;96874.81;5067789;28;20475;-82
2023/07/25 07:39:32;;;;;;;5.23;2.10;;;16.60;99.90;;;17.36;100.00;96869.31;5068223;28;20460;-82
2023/07/25 07:42:03;;;;;;;2.10;1.90;;;16.60;99.90;;;17.41;100.00;96864.03;5066876;28;20873;-82
2023/07/25 07:44:32;;;;;;;2.70;2.47;;;16.70;99.90;;;17.44;100.00;96866.16;5063645;28;20567;-82
2023/07/25 07:47:01;;;;;;;2.57;2.10;;;16.80;99.90;;;17.38;100.00;96880.44;5066537;28;20468;-82
2023/07/25 07:49:29;;;;;;;3.97;2.80;;;16.70;99.90;;;17.40;100.00;96892.31;5063734;28;21457;-82
2023/07/25 07:51:58;;;;;;;3.73;3.00;;;16.70;99.90;;;17.32;100.00;96895.44;5062065;28;20461;-82
2023/07/25 07:54:44;;;;;;;3.23;2.70;;;16.60;99.90;;;17.29;100.00;96906.53;5068215;28;20456;-83
2023/07/25 07:57:16;;;;;;;6.00;3.13;;;16.70;99.90;;;17.26;100.00;96914.97;5069039;28;20499;-82
2023/07/25 07:59:46;;;;;;;2.57;2.37;;;16.60;99.90;;;17.20;100.00;96918.66;5068032;28;20463;-82
2023/07/25 08:02:15;;;;;;;4.80;3.27;;;16.70;99.90;;;17.25;100.00;96909.97;5067160;28;20860;-82
2023/07/25 08:04:44;;;;;;;3.13;2.80;;;16.60;99.90;;;17.34;100.00;96898.66;5065935;28;20766;-82
2023/07/25 08:07:15;;;;;;;3.10;2.50;;;16.60;99.90;;;17.42;100.00;96900.78;5067954;28;20465;-82
2023/07/25 08:09:46;;;;;;;4.10;3.30;;;16.70;99.90;;;17.50;100.00;96910.84;5064830;28;20905;-82
2023/07/25 08:12:16;;;;;;;3.67;3.10;;;16.70;99.90;;;17.53;100.00;96902.41;5068471;28;20499;-82
2023/07/25 08:14:47;;;;;;;3.80;3.40;;;16.80;99.90;;;17.57;100.00;96898.22;5065836;28;20551;-84
2023/07/25 08:17:17;;;;;;;5.83;4.13;;;16.90;99.90;;;17.66;100.00;96903.03;5066018;28;20494;-83
2023/07/25 08:19:47;;;;;;;7.27;4.80;;;17.00;99.90;;;17.74;100.00;96913.06;5065108;28;20452;-83
2023/07/25 08:22:16;;;;;;;5.80;5.20;;;17.10;99.90;;;17.73;100.00;96919.44;5065180;28;20460;-81
2023/07/25 08:24:47;;;;;;;6.47;4.93;;;17.10;99.90;;;17.80;100.00;96934.00;5064846;28;20484;-82
2023/07/25 08:27:18;;;;;;;8.47;5.80;;;17.10;99.90;;;17.85;100.00;96939.31;5068998;28;20529;-82
2023/07/25 08:29:50;;;;;;;5.90;5.03;;;17.20;99.90;;;17.84;100.00;96936.94;5065276;28;20466;-82
2023/07/25 08:32:20;;;;;;;5.77;4.70;;;17.20;99.90;;;17.85;100.00;96944.59;5069902;28;20463;-82
2023/07/25 08:34:51;;;;;;;5.80;5.20;;;17.20;99.90;;;17.90;100.00;96949.91;5073718;28;20460;-82
2023/07/25 08:37:20;;;;;;;5.20;3.87;;;17.20;99.90;;;17.81;100.00;96950.66;5066305;28;20463;-83
2023/07/25 08:39:51;;;;;;;7.60;4.83;;;17.30;99.90;;;17.91;100.00;96956.78;5069004;28;20457;-83
2023/07/25 08:42:28;;;;;;;6.47;5.43;;;17.20;99.90;;;17.94;100.00;96961.56;5064421;28;20544;-82
2023/07/25 08:44:58;;;;;;;6.87;5.13;;;17.30;99.90;;;17.99;100.00;96966.84;5069183;28;20472;-84
2023/07/25 08:47:30;;;;;;;7.30;4.67;;;17.30;99.90;;;17.99;100.00;96968.69;5066913;28;20519;-82
2023/07/25 08:50:05;;;;;;;8.03;5.57;;;17.30;99.90;;;17.97;100.00;96970.81;5071312;28;20469;-82
2023/07/25 08:52:39;;;;;;;8.10;5.10;;;17.30;99.90;;;17.87;100.00;96973.44;5067730;28;20467;-82
2023/07/25 08:55:10;;;;;;;8.43;5.43;;;17.30;99.90;;;17.93;100.00;96980.34;5066341;28;20456;-82
2023/07/25 08:57:44;;;;;;;7.60;5.80;;;17.20;99.90;;;17.92;100.00;96979.53;5068044;28;20461;-82
2023/07/25 09:00:15;;;;;;;6.60;5.17;;;17.20;99.90;;;17.99;100.00;96989.88;5069306;28;20453;-82
2023/07/25 09:02:48;;;;;;;5.77;4.73;;;17.30;99.90;;;18.04;100.00;96992.53;5065984;28;20504;-82
2023/07/25 09:05:22;;;;;;;6.10;4.90;;;17.40;99.90;;;18.07;100.00;96995.47;5068953;28;20456;-82
2023/07/25 09:07:58;;;;;;;5.83;4.50;;;17.40;99.90;;;18.05;100.00;97002.84;5066034;28;20487;-83
2023/07/25 09:10:30;;;;;;;7.37;4.73;;;17.40;99.90;;;18.16;100.00;96995.75;5065876;28;20528;-82
2023/07/25 09:13:02;;;;;;;5.27;4.03;;;17.40;99.90;;;18.19;100.00;97005.03;5066934;28;21027;-82
2023/07/25 09:15:32;;;;;;;5.67;4.30;;;17.40;99.90;;;18.17;100.00;97007.91;5064677;28;20473;-82
2023/07/25 09:18:02;;;;;;;5.50;4.20;;;17.40;99.90;;;18.19;100.00;97020.91;5069805;28;20607;-82
2023/07/25 09:20:32;;;;;;;7.30;4.30;;;17.30;99.90;;;18.11;100.00;97014.25;5064826;28;21004;-82
2023/07/25 09:23:03;;;;;;;5.90;4.17;;;17.30;99.90;;;18.10;100.00;97017.97;5066414;28;20460;-82
2023/07/25 09:25:34;;;;;;;4.97;3.67;;;17.40;99.90;;;17.92;100.00;97027.16;5067298;28;20452;-82
2023/07/25 09:28:07;;;;;;;6.17;3.73;;;17.40;99.90;;;17.98;100.00;97035.88;5069005;28;21177;-82
2023/07/25 09:30:39;;;;;;;3.50;3.10;;;17.20;99.90;;;17.90;100.00;97029.28;5068274;28;20456;-82
2023/07/25 09:33:08;;;;;;;5.20;3.50;;;17.20;99.90;;;17.91;100.00;97035.38;5070764;28;20490;-82
2023/07/25 09:35:47;;;;;;;3.77;3.03;;;17.20;99.90;;;17.90;100.00;97039.06;5072251;28;20821;-82
2023/07/25 09:38:16;;;;;;;3.10;2.80;;;17.30;99.90;;;17.81;100.00;97045.88;5072686;28;20809;-82
2023/07/25 09:40:47;;;;;;;3.27;2.93;;;17.20;99.90;;;17.76;100.00;97048.50;5069323;28;20503;-82
2023/07/25 09:43:26;;;;;;;3.40;2.93;;;17.10;99.90;;;17.80;100.00;97047.75;5070146;28;20470;-82
2023/07/25 09:45:56;;;;;;;5.60;2.93;;;17.10;99.90;;;17.86;100.00;97037.97;5068874;28;20477;-82
2023/07/25 09:48:26;;;;;;;3.10;2.50;;;17.20;99.90;;;17.91;100.00;97043.31;5069643;28;20472;-82
2023/07/25 09:50:58;;;;;;;2.87;2.30;;;17.20;99.90;;;17.94;100.00;97045.44;5071666;28;20900;-82
2023/07/25 09:53:29;;;;;;;3.50;3.10;;;17.20;99.90;;;17.96;100.00;97049.41;5069752;28;20457;-82
2023/07/25 09:56:01;;;;;;;4.10;3.20;;;17.30;99.90;;;17.93;100.00;97047.28;5068196;28;20848;-81
2023/07/25 09:58:32;;;;;;;5.13;2.90;;;17.30;99.90;;;17.83;100.00;97049.88;5071392;28;20452;-82
2023/07/25 10:01:03;;;;;;;2.63;2.43;;;17.20;99.90;;;17.92;100.00;97045.66;5069578;28;20508;-83
2023/07/25 10:03:34;;;;;;;3.83;2.53;;;17.30;99.90;;;17.86;100.00;97054.63;5069683;28;20465;-82
2023/07/25 10:06:05;;;;;;;3.50;2.70;;;17.30;99.90;;;17.98;100.00;97052.56;5068014;28;20464;-82
2023/07/25 10:08:37;;;;;;;4.50;2.70;;;17.30;99.90;;;18.07;100.00;97050.22;5069322;28;20480;-82
2023/07/25 10:11:08;;;;;;;3.03;2.60;;;17.40;99.90;;;18.12;100.00;97041.53;5070881;28;20525;-83
2023/07/25 10:13:42;;;;;;;4.20;3.30;;;17.50;99.90;;;18.15;100.00;97047.09;5070189;28;20464;-82
2023/07/25 10:16:14;;;;;;;3.80;3.43;;;17.40;99.90;;;18.22;100.00;97030.97;5074291;28;20535;-82
2023/07/25 10:18:52;;;;;;;7.33;3.60;;;17.60;99.90;;;18.24;100.00;97040.22;5069308;28;21027;-82
2023/07/25 10:21:28;;;;;;;4.93;3.77;;;17.60;99.90;;;18.28;100.00;97045.81;5067282;28;20465;-82
2023/07/25 10:24:00;;;;;;;5.63;3.93;;;17.70;99.90;;;18.37;100.00;97042.38;5070538;28;20463;-83
2023/07/25 10:26:31;;;;;;;6.17;3.93;;;17.70;99.90;;;18.48;100.00;97051.16;5068604;28;20452;-82
2023/07/25 10:29:03;;;;;;;6.57;4.20;;;17.70;99.90;;;18.39;100.00;97048.22;5070350;28;20868;-83